Blue Hill, Nebraska
Current Conditions -  °F | °C
As of 4:53 PM on Tuesday 21 Oct 2014 (Local Time) from KHSI Reporting Station
Clear Clear  
Wind Chill: 75°   Ceiling: Unl
Heat Index: 75°   Visibility: 10mi
Dew Point: 49°   Wind: 16mph
Humidity: 40%   Direction: 160°SSE
Pressure: 29.98"   Gusts: 22mph
Location:  40.33°N, 98.45°W
Report Text: KHSI 212153Z AUTO 16014G19KT 10SM CLR 24/09 A2998 RMK AO2 SLP143 T02390094
Loading
Personal Weather Stations






























Interactive Weather Map
Tropical Storm Tracking
New forecast layout! Learn more

10-Day Weather Forecast

Advertisements
Track Severe Weather on mobile